Las horas y fechas están en horario UTC
Sumar 1 hora en el horario de invierno y 2 horas en el de verano

Informes METAR cercanos

 

LEZL - Sevilla (civ/Mil, Spain
Distance from station: NNE 24km
Actualización: 23/11/2020 22:00
Despejado
Despejado
 Viento del varies
Viento: varies 4 km/h
Temperatura: 11°C
Rocío: 7°C
Humedad: 77%
Barómetro: 1025 hPa
Resumen: Despejado
Visibility: greater than 10 km
2020/11/23 21:00 LEZL 232100Z VRB02KT CAVOK 11/07 Q1025 NOSIG
LEMO - Moron (sp-Usafb), Spain
Distance from station: E 38km
Actualización: 23/11/2020 22:30
Despejado
Despejado
 Viento del varies
Viento: varies 2 km/h
Temperatura: 8°C
Rocío: 4°C
Humedad: 76%
Barómetro: 1025 hPa
Resumen: Despejado
Visibility: greater than 10 km
2020/11/23 21:30 LEMO 232130Z VRB01KT CAVOK 08/04 Q1025 NOSIG
LEJR - Jerez (civ/Mil), Spain
Distance from station: S 53km
Actualización: 23/11/2020 22:30
Despejado
Despejado
 Viento del ENE
Viento: ENE 2 km/h
Temperatura: 10°C
Rocío: 7°C
Humedad: 82%
Barómetro: 1025 hPa
Resumen: Despejado
Visibility: greater than 10 km
2020/11/23 21:30 LEJR 232130Z 06001KT CAVOK 10/07 Q1025
 
LERT - Rota Naval Stati, Spain
Distance from station: SSO 71km
Actualización: 23/11/2020 22:00
Despejado
Despejado
 Viento del E
Viento: E 17 km/h
Temperatura: 14°C
Rocío: 9°C
Humedad: 72%
Barómetro: 1025 hPa
Resumen: Despejado
Visibility: greater than 10 km
2020/11/23 21:00 LERT 232100Z 10009KT CAVOK 14/09 Q1025 NOSIG
LEBA - Cordoba Airport, Spain
Distance from station: ENE 128km
Actualización: 23/11/2020 22:00
Despejado
Despejado
 Viento del NE
Viento: NE 6 km/h
Temperatura: 8°C
Rocío: 6°C
Humedad: 87%
Barómetro: 1026 hPa
Resumen: Despejado
Visibility: greater than 10 km
2020/11/23 21:00 LEBA 232100Z AUTO 04003KT CAVOK 08/06 Q1026
LXGB - Gibraltar (civ/M, Gibraltar
Distance from station: SSE 137km
Actualización: 23/11/2020 21:50
Parcialmente nuboso
Parcialmente nuboso
 Viento del E
Viento: E 35 km/h
Temperatura: 17°C
Rocío: 10°C
Humedad: 64%
Barómetro: 1026 hPa
Clouds: Parcialmente nuboso
Visibility: 10 km
Cloud details: Parcialmente nuboso 1036 m
2020/11/23 20:50 LXGB 232050Z AUTO 09019KT 9999 SCT034/// 17/10 Q1026
 
LEMG - Malaga (civ/Mil), Spain
Distance from station: ESE 150km
Actualización: 23/11/2020 22:00
Parcialmente nuboso
Parcialmente nuboso
 Viento del ONO
Viento: ONO 7 km/h
Temperatura: 12°C
Rocío: 9°C
Humedad: 82%
Barómetro: 1027 hPa
Clouds: Parcialmente nuboso
Visibility: 10 km
Cloud details: Parcialmente nuboso 914 m
2020/11/23 21:00 LEMG 232100Z 29004KT 9999 SCT030 12/09 Q1027 NOSIG
GMTT - Tangier/Boukhalf, Morocco
Distance from station: S 169km
Actualización: 23/11/2020 22:00
Despejado
Despejado
 Viento del E
Viento: E 20 km/h
Temperatura: 15°C
Rocío: 8°C
Humedad: 63%
Barómetro: 1024 hPa
Resumen: Despejado
Visibility: greater than 10 km
2020/11/23 21:00 GMTT 232100Z 09011KT CAVOK 15/08 Q1024 NOSIG
LPFR - Faro, Portugal
Distance from station: O 172km
Actualización: 23/11/2020 22:00
Despejado
Despejado
 Viento del NNE
Viento: NNE 13 km/h
Temperatura: 14°C
Rocío: 9°C
Humedad: 72%
Barómetro: 1024 hPa
Resumen: Despejado
Visibility: greater than 10 km
2020/11/23 21:00 LPFR 232100Z 02007KT CAVOK 14/09 Q1024
 
LPBJ - Beja (por/Ger-Af, Portugal
Distance from station: ONO 192km
Actualización: 23/11/2020 22:00
Despejado
Despejado
 Viento del ESE
Viento: ESE 4 km/h
Temperatura: 10°C
Rocío: 7°C
Humedad: 82%
Barómetro: 1025 hPa
Resumen: Despejado
Visibility: greater than 10 km
2020/11/23 21:00 LPBJ 232100Z 12002KT CAVOK 10/07 Q1025
LEBZ - Talavera Ab/Bada, Spain
Distance from station: NNO 194km
Actualización: 23/11/2020 21:00
NOT Current
Parcialmente nuboso
Parcialmente nuboso
 Viento del calm
Viento: Calma
Temperatura: 10°C
Rocío: 8°C
Humedad: 88%
Barómetro: 1025 hPa
Clouds: Parcialmente nuboso
Visibility: 9 km
2020/11/23 20:00 LEBZ 232000Z 00000KT 9000 NSC 10/08 Q1025
LEMD - Madrid/Barajas, Spain
Distance from station: NE 415km
Actualización: 23/11/2020 22:00
Despejado
Despejado
 Viento del NNO
Viento: NNO 6 km/h
Temperatura: 6°C
Rocío: 3°C
Humedad: 81%
Barómetro: 1026 hPa
Resumen: Despejado
Visibility: greater than 10 km
2020/11/23 21:00 LEMD 232100Z 34003KT CAVOK 06/03 Q1026 NOSIG